createdAt,value
2022-10-09T00:00:49.203Z,102282.03
2022-10-09T00:03:15.715Z,102286.16
2022-10-09T00:05:42.123Z,102280.59
2022-10-09T00:08:08.469Z,102283.34
2022-10-09T00:10:39.862Z,102295.16
2022-10-09T00:13:06.469Z,102290.50
2022-10-09T00:15:32.804Z,102293.91
2022-10-09T00:17:59.110Z,102291.44
2022-10-09T00:20:25.413Z,102294.13
2022-10-09T00:22:51.739Z,102295.34
2022-10-09T00:25:18.058Z,102296.03
2022-10-09T00:27:45.670Z,102292.72
2022-10-09T00:30:12.284Z,102290.16
2022-10-09T00:32:38.574Z,102289.63
2022-10-09T00:35:05.258Z,102290.56
2022-10-09T00:37:31.579Z,102293.75
2022-10-09T00:39:57.868Z,102290.66
2022-10-09T00:42:24.157Z,102297.50
2022-10-09T00:44:53.530Z,102292.34
2022-10-09T00:47:23.156Z,102288.28
2022-10-09T00:49:50.877Z,102284.25
2022-10-09T00:52:17.420Z,102285.47
2022-10-09T00:54:43.905Z,102280.78
2022-10-09T00:57:10.325Z,102284.81
2022-10-09T00:59:37.392Z,102284.44
2022-10-09T01:02:05.117Z,102286.78
2022-10-09T01:04:31.511Z,102294.69
2022-10-09T01:07:05.396Z,102290.38
2022-10-09T01:09:38.136Z,102290.25
2022-10-09T01:12:10.791Z,102302.63
2022-10-09T01:14:39.289Z,102294.16
2022-10-09T01:17:13.778Z,102292.19
2022-10-09T01:19:56.558Z,102296.63
2022-10-09T01:22:30.710Z,102290.41
2022-10-09T01:25:01.505Z,102285.88
2022-10-09T01:27:30.356Z,102277.09
2022-10-09T01:29:58.456Z,102277.66
2022-10-09T01:32:26.681Z,102273.44
2022-10-09T01:34:53.515Z,102270.59
2022-10-09T01:37:21.136Z,102266.94
2022-10-09T01:39:48.561Z,102262.28
2022-10-09T01:42:15.533Z,102267.47
2022-10-09T01:44:43.159Z,102263.81
2022-10-09T01:47:10.352Z,102270.59
2022-10-09T01:49:39.461Z,102261.72
2022-10-09T01:52:08.520Z,102264.16
2022-10-09T01:54:37.327Z,102264.25
2022-10-09T01:57:05.239Z,102266.81
2022-10-09T01:59:36.436Z,102259.81
2022-10-09T02:02:05.168Z,102254.75
2022-10-09T02:04:31.986Z,102252.31
2022-10-09T02:06:58.289Z,102250.50
2022-10-09T02:09:25.245Z,102246.28
2022-10-09T02:11:54.188Z,102248.91
2022-10-09T02:14:20.514Z,102251.56
2022-10-09T02:16:49.116Z,102250.59
2022-10-09T02:19:19.602Z,102241.00
2022-10-09T02:21:51.353Z,102241.00
2022-10-09T02:24:21.714Z,102241.00
2022-10-09T02:26:48.233Z,102237.78
2022-10-09T02:29:14.846Z,102234.00
2022-10-09T02:31:42.349Z,102237.72
2022-10-09T02:34:09.772Z,102239.50
2022-10-09T02:36:38.174Z,102232.78
2022-10-09T02:39:05.165Z,102234.88
2022-10-09T02:41:31.426Z,102236.19
2022-10-09T02:43:57.810Z,102229.94
2022-10-09T02:46:24.589Z,102227.78
2022-10-09T02:48:51.041Z,102226.09
2022-10-09T02:51:17.566Z,102226.00
2022-10-09T02:53:45.657Z,102221.75
2022-10-09T02:56:12.197Z,102223.63
2022-10-09T02:58:38.499Z,102227.50
2022-10-09T03:01:04.877Z,102226.22
2022-10-09T03:03:31.478Z,102221.81
2022-10-09T03:06:00.761Z,102221.03
2022-10-09T03:08:27.053Z,102220.19
2022-10-09T03:10:54.684Z,102228.44
2022-10-09T03:13:20.971Z,102220.84
2022-10-09T03:15:47.305Z,102223.66
2022-10-09T03:18:13.628Z,102229.75
2022-10-09T03:20:39.941Z,102220.38
2022-10-09T03:23:06.255Z,102222.03
2022-10-09T03:25:32.541Z,102225.97
2022-10-09T03:28:00.184Z,102215.81
2022-10-09T03:30:26.459Z,102219.00
2022-10-09T03:32:52.749Z,102220.38
2022-10-09T03:35:19.085Z,102212.06
2022-10-09T03:37:45.347Z,102203.78
2022-10-09T03:40:11.642Z,102205.31
2022-10-09T03:42:38.081Z,102196.28
2022-10-09T03:45:06.215Z,102201.16
2022-10-09T03:47:32.523Z,102197.38
2022-10-09T03:49:58.820Z,102202.09
2022-10-09T03:52:25.157Z,102198.13
2022-10-09T03:54:51.491Z,102207.28
2022-10-09T03:57:17.790Z,102197.28
2022-10-09T03:59:44.097Z,102192.50
2022-10-09T04:02:11.767Z,102192.94
2022-10-09T04:04:38.109Z,102189.06
2022-10-09T04:07:04.407Z,102195.75
2022-10-09T04:09:30.724Z,102194.72
2022-10-09T04:11:56.996Z,102198.94
2022-10-09T04:14:23.372Z,102191.41
2022-10-09T04:16:49.635Z,102197.13
2022-10-09T04:19:17.273Z,102205.38
2022-10-09T04:21:43.578Z,102202.75
2022-10-09T04:24:09.834Z,102206.63
2022-10-09T04:26:36.352Z,102200.94
2022-10-09T04:29:02.656Z,102208.84
2022-10-09T04:31:28.975Z,102206.13
2022-10-09T04:33:55.363Z,102207.53
2022-10-09T04:36:23.003Z,102203.19
2022-10-09T04:38:49.291Z,102200.16
2022-10-09T04:41:15.608Z,102207.13
2022-10-09T04:43:41.880Z,102203.28
2022-10-09T04:46:10.330Z,102195.19
2022-10-09T04:48:40.407Z,102196.81
2022-10-09T04:51:07.234Z,102188.72
2022-10-09T04:53:35.440Z,102190.31
2022-10-09T04:56:02.163Z,102192.84
2022-10-09T04:58:28.453Z,102197.19
2022-10-09T05:00:54.747Z,102185.25
2022-10-09T05:03:21.040Z,102189.44
2022-10-09T05:05:47.338Z,102182.91
2022-10-09T05:08:13.700Z,102180.75
2022-10-09T05:10:41.305Z,102184.59
2022-10-09T05:13:07.565Z,102178.56
2022-10-09T05:15:35.995Z,102174.06
2022-10-09T05:18:02.303Z,102170.44
2022-10-09T05:20:28.594Z,102169.63
2022-10-09T05:22:54.866Z,102168.78
2022-10-09T05:25:21.164Z,102181.75
2022-10-09T05:27:48.802Z,102173.69
2022-10-09T05:30:15.173Z,102179.63
2022-10-09T05:32:41.462Z,102184.69
2022-10-09T05:35:08.097Z,102185.53
2022-10-09T05:37:34.391Z,102180.47
2022-10-09T05:40:00.671Z,102182.34
2022-10-09T05:42:26.977Z,102174.53
2022-10-09T05:44:54.599Z,102179.03
2022-10-09T05:47:21.018Z,102172.16
2022-10-09T05:49:47.307Z,102179.19
2022-10-09T05:52:13.612Z,102168.66
2022-10-09T05:54:39.914Z,102165.47
2022-10-09T05:57:06.383Z,102170.66
2022-10-09T05:59:32.668Z,102158.91
2022-10-09T06:02:00.417Z,102167.56
2022-10-09T06:04:26.783Z,102164.00
2022-10-09T06:06:53.657Z,102173.31
2022-10-09T06:09:21.073Z,102174.16
2022-10-09T06:11:47.370Z,102160.97
2022-10-09T06:14:13.707Z,102170.50
2022-10-09T06:16:41.060Z,102172.28
2022-10-09T06:19:10.969Z,102166.75
2022-10-09T06:21:37.228Z,102167.44
2022-10-09T06:24:04.537Z,102165.53
2022-10-09T06:26:31.515Z,102163.56
2022-10-09T06:28:58.329Z,102170.28
2022-10-09T06:31:25.385Z,102166.50
2022-10-09T06:33:52.264Z,102164.44
2022-10-09T06:36:20.622Z,102170.28
2022-10-09T06:38:48.156Z,102171.78
2022-10-09T06:41:15.194Z,102167.28
2022-10-09T06:43:41.877Z,102170.50
2022-10-09T06:46:09.683Z,102172.97
2022-10-09T06:48:36.800Z,102171.94
2022-10-09T06:51:03.675Z,102170.69
2022-10-09T06:53:33.962Z,102175.78
2022-10-09T06:56:00.260Z,102168.56
2022-10-09T06:58:27.470Z,102170.13
2022-10-09T07:01:01.768Z,102174.09
2022-10-09T07:03:28.059Z,102172.00
2022-10-09T07:05:54.337Z,102175.13
2022-10-09T07:08:20.699Z,102175.69
2022-10-09T07:10:48.306Z,102174.47
2022-10-09T07:13:14.575Z,102178.41
2022-10-09T07:15:44.469Z,102171.69
2022-10-09T07:18:10.739Z,102172.16
2022-10-09T07:20:37.015Z,102168.16
2022-10-09T07:23:03.285Z,102174.75
2022-10-09T07:25:29.649Z,102172.47
2022-10-09T07:27:57.386Z,102181.50
2022-10-09T07:30:23.672Z,102178.53
2022-10-09T07:32:51.570Z,102169.38
2022-10-09T07:35:18.086Z,102167.06
2022-10-09T07:37:44.368Z,102168.16
2022-10-09T07:40:10.665Z,102173.91
2022-10-09T07:42:36.978Z,102168.28
2022-10-09T07:45:05.144Z,102174.22
2022-10-09T07:47:31.409Z,102164.16
2022-10-09T07:49:57.685Z,102165.25
2022-10-09T07:52:23.959Z,102161.06
2022-10-09T07:54:50.227Z,102156.81
2022-10-09T07:57:16.534Z,102156.78
2022-10-09T07:59:42.814Z,102157.88
2022-10-09T08:02:10.537Z,102166.13
2022-10-09T08:04:37.323Z,102154.03
2022-10-09T08:07:03.622Z,102161.22
2022-10-09T08:09:29.950Z,102166.63
2022-10-09T08:11:56.228Z,102158.34
2022-10-09T08:14:22.487Z,102159.88
2022-10-09T08:16:48.847Z,102155.47
2022-10-09T08:19:16.524Z,102159.25
2022-10-09T08:21:42.821Z,102153.28
2022-10-09T08:24:10.114Z,102158.41
2022-10-09T08:26:36.411Z,102153.25
2022-10-09T08:29:03.705Z,102147.44
2022-10-09T08:31:30.107Z,102151.56
2022-10-09T08:33:57.265Z,102140.84
2022-10-09T08:36:25.118Z,102146.06
2022-10-09T08:38:51.563Z,102139.41
2022-10-09T08:41:27.285Z,102147.75
2022-10-09T08:43:56.025Z,102140.66
2022-10-09T08:46:23.832Z,102131.97
2022-10-09T08:48:51.233Z,102128.22
2022-10-09T08:51:20.628Z,102126.25
2022-10-09T08:53:50.159Z,102119.78
2022-10-09T08:56:16.745Z,102112.97
2022-10-09T08:58:43.866Z,102116.56
2022-10-09T09:01:16.740Z,102108.97
2022-10-09T09:03:53.405Z,102110.47
2022-10-09T09:06:24.977Z,102107.00
2022-10-09T09:08:55.473Z,102101.31
2022-10-09T09:11:25.775Z,102094.22
2022-10-09T09:13:57.211Z,102094.53
2022-10-09T09:16:28.363Z,102090.34
2022-10-09T09:19:02.738Z,102088.00
2022-10-09T09:21:35.851Z,102085.94
2022-10-09T09:24:10.957Z,102090.31
2022-10-09T09:26:37.469Z,102086.25
2022-10-09T09:29:04.827Z,102078.72
2022-10-09T09:31:34.669Z,102079.56
2022-10-09T09:34:03.837Z,102081.69
2022-10-09T09:36:33.154Z,102076.50
2022-10-09T09:41:47.144Z,102070.06
2022-10-09T09:44:14.936Z,102070.91
2022-10-09T09:46:41.570Z,102066.00
2022-10-09T09:49:18.212Z,102065.56
2022-10-09T09:51:44.730Z,102061.06
2022-10-09T09:54:16.038Z,102057.53
2022-10-09T09:57:10.288Z,102053.19
2022-10-09T09:59:33.453Z,102041.78
2022-10-09T10:02:00.478Z,102053.69
2022-10-09T10:04:26.955Z,102041.75
2022-10-09T10:06:53.298Z,102037.81
2022-10-09T10:09:19.719Z,102037.63
2022-10-09T10:11:47.527Z,102032.38
2022-10-09T10:14:14.612Z,102030.78
2022-10-09T10:16:42.897Z,102028.75
2022-10-09T10:19:18.801Z,102030.09
2022-10-09T10:21:47.369Z,102027.22
2022-10-09T10:24:15.161Z,102010.97
2022-10-09T10:26:43.186Z,102011.38
2022-10-09T10:29:11.557Z,102018.63
2022-10-09T10:31:46.041Z,102009.63
2022-10-09T10:34:16.748Z,102008.63
2022-10-09T10:36:43.388Z,102003.50
2022-10-09T10:39:12.952Z,102008.84
2022-10-09T10:41:41.975Z,102000.97
2022-10-09T10:44:13.734Z,101997.38
2022-10-09T10:46:44.295Z,101995.94
2022-10-09T10:49:14.072Z,101988.91
2022-10-09T10:51:47.422Z,101983.25
2022-10-09T10:54:20.485Z,101980.25
2022-10-09T10:56:48.499Z,101978.28
2022-10-09T10:59:28.918Z,101969.75
2022-10-09T11:02:01.016Z,101966.53
2022-10-09T11:04:35.532Z,101963.94
2022-10-09T11:07:06.957Z,101961.41
2022-10-09T11:09:39.143Z,101960.72
2022-10-09T11:12:19.597Z,101960.03
2022-10-09T11:14:54.219Z,101947.38
2022-10-09T11:17:27.055Z,101953.09
2022-10-09T11:20:03.273Z,101938.50
2022-10-09T11:22:36.612Z,101942.00
2022-10-09T11:25:09.320Z,101937.81
2022-10-09T11:27:38.847Z,101942.56
2022-10-09T11:30:08.980Z,101935.38
2022-10-09T11:32:38.783Z,101928.69
2022-10-09T11:35:12.554Z,101922.75
2022-10-09T11:37:40.799Z,101919.59
2022-10-09T11:40:13.480Z,101917.25
2022-10-09T11:42:40.238Z,101920.56
2022-10-09T11:45:14.693Z,101915.41
2022-10-09T11:47:44.665Z,101909.88
2022-10-09T11:50:18.245Z,101906.41
2022-10-09T11:52:47.703Z,101893.38
2022-10-09T11:55:18.439Z,101892.06
2022-10-09T11:57:44.769Z,101883.22
2022-10-09T12:00:11.608Z,101885.38
2022-10-09T12:02:38.189Z,101882.78
2022-10-09T12:05:16.994Z,101883.28
2022-10-09T12:07:43.333Z,101879.31
2022-10-09T12:10:21.298Z,101871.03
2022-10-09T12:12:55.214Z,101864.53
2022-10-09T12:15:24.125Z,101858.03
2022-10-09T12:17:50.434Z,101848.34
2022-10-09T12:20:19.554Z,101842.53
2022-10-09T12:23:01.450Z,101836.41
2022-10-09T12:25:40.569Z,101840.59
2022-10-09T12:28:16.071Z,101826.22
2022-10-09T12:30:47.819Z,101817.34
2022-10-09T12:33:18.677Z,101814.50
2022-10-09T12:35:46.886Z,101807.97
2022-10-09T12:38:16.888Z,101800.94
2022-10-09T12:40:45.484Z,101789.88
2022-10-09T12:43:16.934Z,101792.03
2022-10-09T12:45:44.270Z,101780.47
2022-10-09T12:48:11.460Z,101773.44
2022-10-09T12:50:38.007Z,101766.75
2022-10-09T12:53:06.934Z,101771.78
2022-10-09T12:55:34.887Z,101765.75
2022-10-09T12:58:02.950Z,101761.03
2022-10-09T13:00:29.755Z,101758.19
2022-10-09T13:02:56.561Z,101750.16
2022-10-09T13:05:22.969Z,101747.50
2022-10-09T13:07:54.077Z,101741.97
2022-10-09T13:10:23.647Z,101747.84
2022-10-09T13:12:51.657Z,101740.47
2022-10-09T13:15:29.311Z,101742.66
2022-10-09T13:17:55.605Z,101730.91
2022-10-09T13:20:24.220Z,101728.72
2022-10-09T13:22:53.576Z,101721.69
2022-10-09T13:25:19.864Z,101715.22
2022-10-09T13:27:47.864Z,101719.72
2022-10-09T13:30:14.401Z,101707.84
2022-10-09T13:32:40.686Z,101704.81
2022-10-09T13:35:07.235Z,101707.66
2022-10-09T13:37:33.518Z,101691.25
2022-10-09T13:40:00.155Z,101691.94
2022-10-09T13:42:27.521Z,101682.72
2022-10-09T13:44:55.303Z,101686.56
2022-10-09T13:47:24.427Z,101687.94
2022-10-09T13:49:51.172Z,101680.53
2022-10-09T13:52:17.478Z,101679.88
2022-10-09T13:54:43.773Z,101683.38
2022-10-09T13:57:10.067Z,101670.66
2022-10-09T13:59:36.391Z,101661.28
2022-10-09T14:02:04.113Z,101660.44
2022-10-09T14:04:30.405Z,101658.44
2022-10-09T14:06:56.814Z,101655.75
2022-10-09T14:09:23.232Z,101660.59
2022-10-09T14:11:49.651Z,101649.03
2022-10-09T14:14:15.964Z,101644.53
2022-10-09T14:16:42.285Z,101643.38
2022-10-09T14:19:10.676Z,101637.84
2022-10-09T14:21:37.072Z,101626.63
2022-10-09T14:24:03.554Z,101626.31
2022-10-09T14:26:30.052Z,101622.47
2022-10-09T14:28:58.618Z,101626.16
2022-10-09T14:31:25.073Z,101620.97
2022-10-09T14:33:55.247Z,101616.94
2022-10-09T14:36:23.260Z,101615.94
2022-10-09T14:38:49.724Z,101610.56
2022-10-09T14:41:16.557Z,101604.56
2022-10-09T14:43:42.893Z,101605.41
2022-10-09T14:46:10.701Z,101600.72
2022-10-09T14:48:37.019Z,101601.03
2022-10-09T14:51:04.006Z,101593.34
2022-10-09T14:53:31.981Z,101591.31
2022-10-09T14:55:59.637Z,101589.25
2022-10-09T14:58:27.361Z,101589.75
2022-10-09T15:00:53.647Z,101585.09
2022-10-09T15:03:19.953Z,101577.41
2022-10-09T15:05:46.219Z,101574.72
2022-10-09T15:08:12.642Z,101564.50
2022-10-09T15:10:40.908Z,101564.50
2022-10-09T15:13:07.217Z,101563.00
2022-10-09T15:15:33.529Z,101559.31
2022-10-09T15:17:59.823Z,101555.47
2022-10-09T15:20:26.125Z,101550.63
2022-10-09T15:22:52.461Z,101544.28
2022-10-09T15:25:18.754Z,101546.63
2022-10-09T15:27:49.188Z,101541.28
2022-10-09T15:30:17.657Z,101536.25
2022-10-09T15:32:43.954Z,101533.94
2022-10-09T15:35:10.229Z,101533.09
2022-10-09T15:37:36.551Z,101533.25
2022-10-09T15:40:02.857Z,101525.75
2022-10-09T15:42:29.149Z,101520.53
2022-10-09T15:44:56.839Z,101513.81
2022-10-09T15:47:39.342Z,101511.66
2022-10-09T15:50:10.001Z,101501.81
2022-10-09T15:52:36.398Z,101498.44
2022-10-09T15:55:02.696Z,101502.09
2022-10-09T15:57:28.996Z,101498.75
2022-10-09T15:59:56.599Z,101489.91
2022-10-09T16:02:22.897Z,101489.06
2022-10-09T16:04:49.204Z,101489.34
2022-10-09T16:07:15.501Z,101481.38
2022-10-09T16:09:41.802Z,101479.06
2022-10-09T16:12:08.065Z,101478.94
2022-10-09T16:14:34.419Z,101479.47
2022-10-09T16:17:02.044Z,101470.59
2022-10-09T16:19:28.316Z,101473.63
2022-10-09T16:21:56.395Z,101463.06
2022-10-09T16:24:22.677Z,101467.06
2022-10-09T16:26:49.046Z,101462.91
2022-10-09T16:29:15.398Z,101466.09
2022-10-09T16:31:41.714Z,101460.94
2022-10-09T16:34:09.398Z,101456.94
2022-10-09T16:36:35.720Z,101458.41
2022-10-09T16:39:02.042Z,101460.78
2022-10-09T16:41:28.353Z,101452.03
2022-10-09T16:43:56.034Z,101456.34
2022-10-09T16:46:23.695Z,101457.66
2022-10-09T16:48:51.198Z,101450.00
2022-10-09T16:51:19.829Z,101456.34
2022-10-09T16:53:48.597Z,101454.13
2022-10-09T16:56:16.295Z,101453.91
2022-10-09T16:58:43.478Z,101451.91
2022-10-09T17:01:10.640Z,101444.88
2022-10-09T17:03:37.284Z,101443.50
2022-10-09T17:06:06.341Z,101447.16
2022-10-09T17:08:34.063Z,101453.50
2022-10-09T17:11:00.356Z,101449.13
2022-10-09T17:13:26.638Z,101444.94
2022-10-09T17:15:52.944Z,101453.75
2022-10-09T17:18:19.220Z,101446.88
2022-10-09T17:20:45.514Z,101452.88
2022-10-09T17:23:11.817Z,101446.94
2022-10-09T17:25:39.855Z,101451.66
2022-10-09T17:28:08.078Z,101455.63
2022-10-09T17:30:37.404Z,101446.78
2022-10-09T17:33:03.891Z,101450.59
2022-10-09T17:35:30.202Z,101448.38
2022-10-09T17:37:56.498Z,101451.50
2022-10-09T17:40:23.018Z,101449.16
2022-10-09T17:42:50.955Z,101461.44
2022-10-09T17:45:17.425Z,101454.28
2022-10-09T17:47:43.715Z,101451.31
2022-10-09T17:50:10.030Z,101449.47
2022-10-09T17:52:36.303Z,101450.31
2022-10-09T17:55:02.642Z,101450.16
2022-10-09T17:57:28.996Z,101449.31
2022-10-09T17:59:56.655Z,101457.78
2022-10-09T18:02:22.954Z,101450.47
2022-10-09T18:04:49.296Z,101456.09
2022-10-09T18:07:15.569Z,101461.78
2022-10-09T18:09:41.878Z,101447.22
2022-10-09T18:12:08.191Z,101445.25
2022-10-09T18:14:34.537Z,101446.47
2022-10-09T18:17:02.145Z,101434.28
2022-10-09T18:19:28.447Z,101433.09
2022-10-09T18:21:54.728Z,101431.97
2022-10-09T18:24:21.039Z,101427.91
2022-10-09T18:26:47.330Z,101423.22
2022-10-09T18:29:13.678Z,101422.38
2022-10-09T18:31:40.032Z,101420.84
2022-10-09T18:34:07.748Z,101419.72
2022-10-09T18:36:34.073Z,101418.78
2022-10-09T18:39:01.618Z,101425.28
2022-10-09T18:41:28.031Z,101420.56
2022-10-09T18:43:54.677Z,101413.19
2022-10-09T18:46:22.577Z,101414.88
2022-10-09T18:48:49.821Z,101418.53
2022-10-09T18:51:19.941Z,101408.47
2022-10-09T18:53:48.513Z,101410.97
2022-10-09T18:56:16.791Z,101408.78
2022-10-09T18:58:43.515Z,101415.56
2022-10-09T19:01:09.876Z,101411.50
2022-10-09T19:03:36.197Z,101409.75
2022-10-09T19:06:02.548Z,101401.69
2022-10-09T19:08:30.194Z,101398.06
2022-10-09T19:10:56.459Z,101401.47
2022-10-09T19:13:22.762Z,101392.81
2022-10-09T19:15:52.291Z,101394.78
2022-10-09T19:18:18.590Z,101393.38
2022-10-09T19:20:44.919Z,101399.88
2022-10-09T19:23:11.210Z,101396.53
2022-10-09T19:25:44.773Z,101395.97
2022-10-09T19:28:11.120Z,101389.41
2022-10-09T19:30:38.716Z,101393.50
2022-10-09T19:33:05.006Z,101397.44
2022-10-09T19:35:31.284Z,101388.59
2022-10-09T19:37:57.563Z,101397.59
2022-10-09T19:40:23.871Z,101394.38
2022-10-09T19:42:51.530Z,101386.84
2022-10-09T19:45:17.824Z,101387.97
2022-10-09T19:47:44.150Z,101387.44
2022-10-09T19:50:10.441Z,101380.59
2022-10-09T19:52:36.750Z,101380.03
2022-10-09T19:55:03.136Z,101371.69
2022-10-09T19:57:29.452Z,101376.31
2022-10-09T19:59:57.084Z,101368.47
2022-10-09T20:02:23.382Z,101364.28
2022-10-09T20:04:49.743Z,101365.44
2022-10-09T20:07:16.018Z,101370.91
2022-10-09T20:09:42.338Z,101370.19
2022-10-09T20:12:08.641Z,101370.50
2022-10-09T20:14:34.935Z,101376.09
2022-10-09T20:17:02.608Z,101375.44
2022-10-09T20:19:28.890Z,101371.22
2022-10-09T20:21:55.196Z,101363.53
2022-10-09T20:24:21.497Z,101369.84
2022-10-09T20:26:47.781Z,101360.31
2022-10-09T20:29:14.087Z,101364.28
2022-10-09T20:31:40.576Z,101366.25
2022-10-09T20:34:08.197Z,101363.03
2022-10-09T20:36:35.746Z,101356.88
2022-10-09T20:39:03.799Z,101361.53
2022-10-09T20:41:30.757Z,101359.00
2022-10-09T20:43:58.065Z,101361.25
2022-10-09T20:46:24.747Z,101359.72
2022-10-09T20:48:51.621Z,101359.88
2022-10-09T20:51:20.045Z,101362.69
2022-10-09T20:53:46.757Z,101350.50
2022-10-09T20:56:14.018Z,101349.81
2022-10-09T20:58:40.669Z,101353.59
2022-10-09T21:01:08.230Z,101339.47
2022-10-09T21:03:35.254Z,101342.28
2022-10-09T21:06:02.077Z,101344.25
2022-10-09T21:08:29.715Z,101348.03
2022-10-09T21:10:56.068Z,101342.00
2022-10-09T21:13:22.354Z,101343.97
2022-10-09T21:15:49.322Z,101340.63
2022-10-09T21:18:16.874Z,101340.78
2022-10-09T21:20:44.093Z,101332.13
2022-10-09T21:23:11.602Z,101336.03
2022-10-09T21:25:39.413Z,101327.22
2022-10-09T21:28:05.778Z,101327.50
2022-10-09T21:30:41.049Z,101323.19
2022-10-09T21:33:07.977Z,101324.19
2022-10-09T21:35:38.086Z,101330.47
2022-10-09T21:38:04.368Z,101321.66
2022-10-09T21:40:30.657Z,101318.16
2022-10-09T21:42:58.297Z,101321.78
2022-10-09T21:45:24.580Z,101320.25
2022-10-09T21:47:50.865Z,101318.72
2022-10-09T21:50:17.240Z,101312.44
2022-10-09T21:52:43.575Z,101306.59
2022-10-09T21:55:09.860Z,101312.88
2022-10-09T21:57:36.167Z,101306.88
2022-10-09T22:00:04.212Z,101308.69
2022-10-09T22:02:30.531Z,101309.66
2022-10-09T22:04:56.808Z,101305.47
2022-10-09T22:07:23.245Z,101301.00
2022-10-09T22:09:49.521Z,101302.94
2022-10-09T22:12:15.776Z,101294.13
2022-10-09T22:14:43.785Z,101297.81
2022-10-09T22:17:11.426Z,101287.31
2022-10-09T22:19:37.734Z,101289.41
2022-10-09T22:22:04.049Z,101292.06
2022-10-09T22:24:30.514Z,101283.66
2022-10-09T22:26:57.153Z,101283.66
2022-10-09T22:29:23.700Z,101286.63
2022-10-09T22:31:49.996Z,101276.13
2022-10-09T22:34:18.031Z,101274.31
2022-10-09T22:36:44.352Z,101276.28
2022-10-09T22:39:11.158Z,101272.06
2022-10-09T22:41:37.894Z,101266.75
2022-10-09T22:44:05.146Z,101264.25
2022-10-09T22:46:32.548Z,101263.59
2022-10-09T22:48:59.187Z,101265.66
2022-10-09T22:51:28.147Z,101262.19
2022-10-09T22:53:54.658Z,101270.41
2022-10-09T22:56:22.029Z,101261.75
2022-10-09T22:58:49.060Z,101258.44
2022-10-09T23:01:23.017Z,101260.38
2022-10-09T23:03:49.333Z,101262.19
2022-10-09T23:06:16.622Z,101264.00
2022-10-09T23:08:45.824Z,101258.13
2022-10-09T23:11:12.721Z,101257.44
2022-10-09T23:13:39.291Z,101251.28
2022-10-09T23:16:06.653Z,101256.75
2022-10-09T23:18:33.602Z,101256.75
2022-10-09T23:21:02.180Z,101246.44
2022-10-09T23:23:28.482Z,101254.53
2022-10-09T23:25:56.107Z,101244.03
2022-10-09T23:28:22.419Z,101250.47
2022-10-09T23:30:48.727Z,101249.63
2022-10-09T23:33:14.992Z,101247.13
2022-10-09T23:35:41.773Z,101240.28
2022-10-09T23:38:08.286Z,101237.78
2022-10-09T23:40:34.696Z,101239.72
2022-10-09T23:43:02.362Z,101239.84
2022-10-09T23:45:28.644Z,101230.22
2022-10-09T23:47:54.940Z,101236.66
2022-10-09T23:50:21.237Z,101229.69
2022-10-09T23:52:47.771Z,101223.69
2022-10-09T23:55:14.536Z,101227.44
2022-10-09T23:57:40.804Z,101232.03
